Time;durP1;ratioP1;P1;durP2;ratioP2;P2;SDS_P1;SDS_P2;PMS_P1;PMS_P2;Temp;Humidity;BMP_temperature;BMP_pressure;BME280_temperature;BME280_humidity;BME280_pressure;Samples;Min_cycle;Max_cycle;Signal;HPM_P1;HPM_P2
2022/06/07 00:01:29;;;;;;;0.90;0.90;;;;;;;12.07;98.84;101076.50;5013172;28;20160;-48
2022/06/07 00:03:54;;;;;;;1.08;0.82;;;;;;;12.03;99.17;101089.19;5012921;28;20247;-47
2022/06/07 00:06:20;;;;;;;1.27;0.70;;;;;;;11.99;99.82;101079.50;5011763;28;20557;-46
2022/06/07 00:08:46;;;;;;;0.77;0.77;;;;;;;12.15;99.58;101063.63;5013195;28;20188;-47
2022/06/07 00:11:11;;;;;;;2.75;1.15;;;;;;;12.03;98.22;101062.34;5013008;28;20204;-47
2022/06/07 00:13:37;;;;;;;0.90;0.90;;;;;;;12.06;98.48;101080.13;5012618;28;20211;-52
2022/06/07 00:16:03;;;;;;;1.95;0.88;;;;;;;12.19;99.04;101077.81;5013156;28;20184;-47
2022/06/07 00:18:28;;;;;;;0.77;0.77;;;;;;;12.05;99.16;101070.34;5012755;28;20173;-49
2022/06/07 00:20:54;;;;;;;0.90;0.90;;;;;;;11.87;98.87;101078.16;5013111;28;20183;-47
2022/06/07 00:23:20;;;;;;;0.60;0.60;;;;;;;11.92;99.73;101072.63;5010697;28;20204;-47
2022/06/07 00:25:50;;;;;;;0.80;0.75;;;;;;;11.75;100.00;101065.22;5012404;28;20188;-47
2022/06/07 00:28:17;;;;;;;0.98;0.93;;;;;;;11.76;100.00;101075.00;5011156;28;20246;-48
2022/06/07 00:30:42;;;;;;;0.85;0.73;;;;;;;11.74;100.00;101082.22;5010910;28;20288;-46
2022/06/07 00:33:08;;;;;;;1.13;0.80;;;;;;;11.84;100.00;101088.13;5010353;28;20271;-46
2022/06/07 00:35:33;;;;;;;0.82;0.82;;;;;;;11.75;100.00;101084.88;5012180;28;20611;-44
2022/06/07 00:37:59;;;;;;;1.13;0.90;;;;;;;11.58;100.00;101075.72;5011096;28;20165;-46
2022/06/07 00:40:25;;;;;;;0.90;0.88;;;;;;;11.72;100.00;101084.13;5012088;28;20271;-44
2022/06/07 00:42:50;;;;;;;1.42;0.90;;;;;;;11.62;100.00;101082.72;5012243;28;20180;-45
2022/06/07 00:45:22;;;;;;;1.95;0.80;;;;;;;11.68;100.00;101067.25;5011261;28;20199;-46
2022/06/07 00:47:47;;;;;;;1.13;0.88;;;;;;;11.71;100.00;101067.13;5010508;28;20243;-45
2022/06/07 00:50:36;;;;;;;1.65;1.05;;;;;;;11.75;100.00;101057.16;5010416;28;20196;-46
2022/06/07 00:53:03;;;;;;;0.70;0.70;;;;;;;11.65;100.00;101058.44;4970652;28;20563;-47
2022/06/07 00:55:29;;;;;;;1.95;1.00;;;;;;;11.50;100.00;101052.75;4994239;28;20172;-47
2022/06/07 00:58:07;;;;;;;2.10;1.00;;;;;;;11.41;100.00;101052.22;5010272;28;20208;-45
2022/06/07 01:00:38;;;;;;;1.83;1.00;;;;;;;11.07;100.00;101034.72;5011874;28;20149;-47
2022/06/07 01:03:04;;;;;;;1.20;1.10;;;;;;;11.19;100.00;101044.09;5009811;28;20211;-46
2022/06/07 01:05:30;;;;;;;1.00;1.00;;;;;;;11.11;100.00;101037.22;5010724;28;20184;-46
2022/06/07 01:10:51;;;;;;;1.00;1.00;;;;;;;11.03;100.00;101033.06;5009958;28;20197;-47
2022/06/07 01:13:26;;;;;;;1.30;1.20;;;;;;;11.02;100.00;101034.91;5009936;28;20189;-47
2022/06/07 01:16:01;;;;;;;1.80;1.50;;;;;;;11.06;100.00;101030.28;5023722;28;20272;-46
2022/06/07 01:18:31;;;;;;;2.42;1.27;;;;;;;11.06;100.00;101036.53;5029637;28;20539;-46
2022/06/07 01:21:21;;;;;;;2.45;1.20;;;;;;;10.94;100.00;101031.59;5022700;28;20180;-47
2022/06/07 01:23:48;;;;;;;1.33;1.15;;;;;;;10.92;100.00;101022.75;5005018;28;20306;-47
2022/06/07 01:26:17;;;;;;;1.02;0.90;;;;;;;10.97;100.00;101027.94;5029114;28;20210;-44
2022/06/07 01:28:43;;;;;;;1.13;1.00;;;;;;;10.97;100.00;101026.13;5062530;28;20203;-45
2022/06/07 01:31:10;;;;;;;2.15;1.10;;;;;;;10.87;100.00;101027.41;5029723;28;20210;-46
2022/06/07 01:33:35;;;;;;;1.30;1.20;;;;;;;10.80;100.00;101012.47;5030381;28;20279;-46
2022/06/07 01:36:07;;;;;;;1.20;1.10;;;;;;;10.92;100.00;101020.94;5031288;28;20586;-47
2022/06/07 01:38:35;;;;;;;3.28;1.27;;;;;;;10.86;100.00;101010.44;5030280;28;20547;-46
2022/06/07 01:43:45;;;;;;;1.30;1.25;;;;;;;10.88;100.00;101005.03;5062256;28;20203;-47
2022/06/07 01:46:11;;;;;;;1.30;1.20;;;;;;;10.85;100.00;101002.47;5062827;28;20212;-47
2022/06/07 01:48:38;;;;;;;1.25;0.98;;;;;;;10.78;100.00;100996.47;5062559;28;20665;-47
2022/06/07 01:51:05;;;;;;;1.00;1.00;;;;;;;10.85;100.00;100995.28;5062155;28;20216;-48
2022/06/07 01:53:32;;;;;;;2.17;1.33;;;;;;;10.89;100.00;100994.25;5030179;28;20218;-46
2022/06/07 01:56:06;;;;;;;1.35;1.25;;;;;;;10.84;100.00;100985.47;5030063;28;20431;-46
2022/06/07 01:58:33;;;;;;;1.35;1.10;;;;;;;10.76;100.00;101008.13;5061582;28;20167;-48
2022/06/07 02:00:58;;;;;;;1.60;1.50;;;;;;;10.71;100.00;100987.75;5045505;28;20243;-49
2022/06/07 02:03:24;;;;;;;0.88;0.88;;;;;;;10.78;100.00;100982.16;5028494;28;20307;-46
2022/06/07 02:05:55;;;;;;;1.45;1.10;;;;;;;10.71;100.00;100987.75;5062550;28;20538;-45
2022/06/07 02:08:22;;;;;;;3.08;1.38;;;;;;;10.74;100.00;100977.88;5060968;28;20457;-46
2022/06/07 02:10:48;;;;;;;1.23;1.17;;;;;;;10.72;100.00;100978.78;5030733;28;20698;-46
2022/06/07 02:13:17;;;;;;;3.63;1.23;;;;;;;10.85;100.00;100968.50;5012081;28;20192;-46
2022/06/07 02:15:42;;;;;;;2.63;1.10;;;;;;;10.81;100.00;100965.97;5030120;28;20170;-46
2022/06/07 02:18:08;;;;;;;1.75;1.45;;;;;;;10.77;100.00;100965.22;5030343;28;20203;-46
2022/06/07 02:20:46;;;;;;;2.00;1.70;;;;;;;10.80;100.00;100962.44;5061980;28;20172;-46
2022/06/07 02:23:12;;;;;;;2.35;1.45;;;;;;;10.83;100.00;100956.09;5061565;28;20196;-47
2022/06/07 02:25:43;;;;;;;1.50;1.40;;;;;;;10.86;100.00;100955.94;5056848;28;20168;-46
2022/06/07 02:28:11;;;;;;;1.73;1.63;;;;;;;10.83;100.00;100958.75;5029099;28;20331;-46
2022/06/07 02:30:38;;;;;;;1.60;1.48;;;;;;;10.84;100.00;100955.13;5029668;28;20565;-43
2022/06/07 02:33:04;;;;;;;1.50;1.40;;;;;;;10.88;100.00;100954.97;5029733;28;20184;-42
2022/06/07 02:35:30;;;;;;;1.50;1.40;;;;;;;10.89;100.00;100954.03;5030005;28;20168;-45
2022/06/07 02:37:55;;;;;;;1.90;1.80;;;;;;;10.92;100.00;100956.59;5029943;28;20167;-44
2022/06/07 02:40:22;;;;;;;4.05;1.80;;;;;;;10.96;100.00;100952.00;5030230;28;20642;-45
2022/06/07 02:42:47;;;;;;;3.95;2.00;;;;;;;11.02;100.00;100953.56;5029712;28;20176;-46
2022/06/07 02:45:13;;;;;;;2.85;2.50;;;;;;;10.98;100.00;100950.13;5029424;28;20188;-45
2022/06/07 02:47:39;;;;;;;2.30;2.20;;;;;;;11.01;100.00;100955.38;5028694;28;20168;-45
2022/06/07 02:50:11;;;;;;;2.30;2.20;;;;;;;11.08;100.00;100956.00;5028386;28;20223;-45
2022/06/07 02:52:39;;;;;;;2.90;2.70;;;;;;;11.06;100.00;100947.16;5028719;28;20172;-44
2022/06/07 02:55:21;;;;;;;4.28;2.85;;;;;;;11.09;100.00;100934.50;5027711;28;20183;-44
2022/06/07 02:57:49;;;;;;;3.50;3.20;;;;;;;11.16;100.00;100928.91;5028432;28;20516;-43
2022/06/07 03:00:19;;;;;;;5.20;3.47;;;;;;;11.14;100.00;100942.38;5027967;28;20721;-43
2022/06/07 03:02:45;;;;;;;3.58;3.28;;;;;;;11.13;100.00;100932.59;5027974;28;20172;-44
2022/06/07 03:05:12;;;;;;;3.38;3.10;;;;;;;11.20;100.00;100935.91;5027817;28;20192;-44
2022/06/07 03:07:42;;;;;;;4.07;3.67;;;;;;;11.15;100.00;100925.38;5027665;28;20196;-44
2022/06/07 03:10:10;;;;;;;3.97;3.67;;;;;;;11.16;100.00;100926.25;5032619;28;20215;-43
2022/06/07 03:12:37;;;;;;;4.28;3.90;;;;;;;11.21;100.00;100935.81;5026885;28;20394;-45
2022/06/07 03:15:04;;;;;;;4.00;3.72;;;;;;;11.29;100.00;100922.13;5025952;28;20191;-43
2022/06/07 03:17:30;;;;;;;4.65;4.25;;;;;;;11.32;100.00;100925.53;5031824;28;20179;-42
2022/06/07 03:19:56;;;;;;;4.47;4.05;;;;;;;11.36;100.00;100912.03;5029245;28;20171;-43
2022/06/07 03:22:22;;;;;;;4.40;4.03;;;;;;;11.30;100.00;100910.44;5018859;28;20668;-43
2022/06/07 03:24:49;;;;;;;4.20;3.90;;;;;;;11.31;100.00;100912.22;5030467;28;20204;-43
2022/06/07 03:27:15;;;;;;;7.00;3.80;;;;;;;11.34;100.00;100906.72;5031815;28;20176;-44
2022/06/07 03:29:41;;;;;;;4.90;4.50;;;;;;;11.31;100.00;100904.16;5031394;28;20179;-44
2022/06/07 03:32:11;;;;;;;5.00;4.60;;;;;;;11.36;100.00;100910.22;5064867;28;20258;-44
2022/06/07 03:34:39;;;;;;;4.85;4.45;;;;;;;11.33;100.00;100915.72;5064705;28;20287;-44
2022/06/07 03:37:05;;;;;;;4.32;4.03;;;;;;;11.42;100.00;100909.09;5032927;28;20169;-41
2022/06/07 03:39:31;;;;;;;4.95;4.20;;;;;;;11.47;100.00;100909.78;5048206;28;20168;-43
2022/06/07 03:42:01;;;;;;;5.80;4.97;;;;;;;11.41;100.00;100913.56;5064567;28;20184;-43
2022/06/07 03:44:28;;;;;;;5.68;4.90;;;;;;;11.39;100.00;100911.91;5032455;28;20279;-44
2022/06/07 03:47:02;;;;;;;5.28;4.78;;;;;;;11.43;100.00;100906.34;5064546;28;20203;-44
2022/06/07 03:49:29;;;;;;;4.72;4.30;;;;;;;11.45;100.00;100908.97;5064866;28;20203;-43
2022/06/07 03:51:58;;;;;;;5.25;4.78;;;;;;;11.51;100.00;100901.53;5064884;28;20184;-43
2022/06/07 03:54:24;;;;;;;4.88;4.47;;;;;;;11.47;100.00;100902.59;5063939;28;20250;-45
2022/06/07 03:56:50;;;;;;;4.68;4.28;;;;;;;11.47;100.00;100894.56;5048225;28;20260;-43
2022/06/07 03:59:18;;;;;;;5.70;4.47;;;;;;;11.49;100.00;100907.91;5065077;28;20179;-42
2022/06/07 04:01:44;;;;;;;4.97;4.47;;;;;;;11.47;100.00;100899.91;5064847;28;20661;-43
2022/06/07 04:04:10;;;;;;;6.30;4.82;;;;;;;11.46;100.00;100895.50;5032604;28;20272;-41
2022/06/07 04:08:10;;;;;;;6.75;4.45;;;;;;;11.45;100.00;100895.56;5019908;28;20195;-43
2022/06/07 04:09:32;;;;;;;5.13;4.50;;;;;;;11.49;100.00;100895.38;5012220;28;20208;-42
2022/06/07 04:11:58;;;;;;;4.72;4.32;;;;;;;11.51;100.00;100903.34;5011957;28;20200;-43
2022/06/07 04:14:24;;;;;;;6.43;4.75;;;;;;;11.49;100.00;100899.88;5027603;28;20593;-44
2022/06/07 04:16:50;;;;;;;4.90;4.35;;;;;;;11.57;100.00;100896.84;5031022;28;20176;-43
2022/06/07 04:19:20;;;;;;;5.05;4.43;;;;;;;11.56;100.00;100895.97;5031100;28;20176;-44
2022/06/07 04:21:46;;;;;;;4.75;4.35;;;;;;;11.54;100.00;100896.06;5030094;28;20533;-45
2022/06/07 04:24:20;;;;;;;7.13;4.40;;;;;;;11.59;100.00;100900.34;5030744;28;20302;-41
2022/06/07 04:26:47;;;;;;;4.85;4.47;;;;;;;11.63;100.00;100883.19;5029401;28;20627;-43
2022/06/07 04:29:14;;;;;;;4.40;4.00;;;;;;;11.63;100.00;100896.59;5031128;28;20230;-43
2022/06/07 04:31:39;;;;;;;3.88;3.58;;;;;;;11.69;100.00;100893.66;5030896;28;20212;-44
2022/06/07 04:34:10;;;;;;;4.05;3.65;;;;;;;11.68;100.00;100889.25;5029754;28;20191;-42
2022/06/07 04:36:36;;;;;;;4.22;3.40;;;;;;;11.82;100.00;100894.91;5031661;28;20647;-41
2022/06/07 04:39:05;;;;;;;4.00;3.47;;;;;;;11.79;100.00;100900.41;5031608;28;20326;-44
2022/06/07 04:41:40;;;;;;;4.35;3.55;;;;;;;11.79;100.00;100892.34;5031577;28;20211;-44
2022/06/07 04:44:08;;;;;;;4.82;3.22;;;;;;;11.77;100.00;100891.53;5030710;28;20215;-43
2022/06/07 04:46:33;;;;;;;4.18;3.17;;;;;;;11.75;100.00;100893.41;5031438;28;20173;-42
2022/06/07 04:49:03;;;;;;;3.90;3.22;;;;;;;11.84;100.00;100892.16;5031193;28;20176;-43
2022/06/07 04:51:34;;;;;;;3.25;3.05;;;;;;;11.80;100.00;100887.84;5015008;28;20195;-44
2022/06/07 04:54:12;;;;;;;5.70;3.20;;;;;;;11.89;100.00;100892.84;5030988;28;20215;-43
2022/06/07 04:56:41;;;;;;;4.38;2.90;;;;;;;11.85;100.00;100888.50;5031014;28;20176;-44
2022/06/07 04:59:09;;;;;;;3.45;3.15;;;;;;;11.87;100.00;100895.59;5030866;28;20184;-43
2022/06/07 05:01:40;;;;;;;3.42;3.13;;;;;;;11.91;100.00;100894.53;5030989;28;20694;-43
2022/06/07 05:04:12;;;;;;;3.25;3.00;;;;;;;11.95;100.00;100885.41;5032304;28;20188;-43
2022/06/07 05:06:42;;;;;;;3.47;3.20;;;;;;;12.00;100.00;100887.88;5030783;28;20199;-42
2022/06/07 05:09:24;;;;;;;4.15;3.05;;;;;;;12.05;100.00;100893.09;5031375;28;20669;-43
2022/06/07 05:11:55;;;;;;;3.28;2.97;;;;;;;12.02;100.00;100885.16;5031050;28;20680;-44
2022/06/07 05:14:23;;;;;;;2.92;2.80;;;;;;;12.00;100.00;100874.47;5030575;28;20194;-43
2022/06/07 05:16:51;;;;;;;2.97;2.75;;;;;;;12.06;100.00;100879.56;5014467;28;20204;-42
2022/06/07 05:19:22;;;;;;;3.00;2.80;;;;;;;12.15;100.00;100889.03;5014796;28;20556;-43
2022/06/07 05:21:55;;;;;;;2.50;2.30;;;;;;;12.18;100.00;100877.28;5030439;28;20325;-44
2022/06/07 05:24:21;;;;;;;2.75;2.55;;;;;;;12.15;100.00;100880.97;5029776;28;20215;-44
2022/06/07 05:26:52;;;;;;;2.33;2.22;;;;;;;12.16;100.00;100878.25;5012620;28;20259;-43
2022/06/07 05:29:27;;;;;;;2.53;2.33;;;;;;;12.22;100.00;100885.13;5010638;28;20226;-44
2022/06/07 05:31:55;;;;;;;3.17;2.35;;;;;;;12.33;100.00;100887.34;5009574;28;20209;-42
2022/06/07 05:34:21;;;;;;;2.50;2.30;;;;;;;12.27;100.00;100888.50;5009916;28;20192;-43
2022/06/07 05:36:50;;;;;;;2.42;2.15;;;;;;;12.26;100.00;100886.75;5010419;28;20194;-42
2022/06/07 05:39:23;;;;;;;3.40;2.50;;;;;;;12.32;100.00;100882.94;5010651;28;20280;-42
2022/06/07 05:41:50;;;;;;;2.50;2.30;;;;;;;12.41;100.00;100892.41;5010271;28;20184;-42
2022/06/07 05:44:20;;;;;;;2.30;2.20;;;;;;;12.44;100.00;100885.09;5009516;28;20219;-41
2022/06/07 05:46:48;;;;;;;2.05;1.90;;;;;;;12.47;100.00;100878.69;5029258;28;20214;-42
2022/06/07 05:49:22;;;;;;;2.60;2.25;;;;;;;12.54;100.00;100883.69;5028675;28;20211;-42
2022/06/07 05:52:00;;;;;;;2.63;2.30;;;;;;;12.50;100.00;100884.78;5028891;28;20210;-42
2022/06/07 05:54:28;;;;;;;2.78;2.47;;;;;;;12.52;100.00;100882.91;5028511;28;20217;-43
2022/06/07 05:56:53;;;;;;;2.20;2.10;;;;;;;12.55;100.00;100872.03;5029116;28;20190;-42
2022/06/07 05:59:19;;;;;;;2.45;2.35;;;;;;;12.52;100.00;100888.28;5030575;28;20262;-42
2022/06/07 06:01:45;;;;;;;3.70;2.50;;;;;;;12.55;100.00;100880.09;5025998;28;20184;-43
2022/06/07 06:04:12;;;;;;;2.50;2.30;;;;;;;12.60;100.00;100868.25;5024723;28;20203;-42
2022/06/07 06:06:43;;;;;;;3.42;2.53;;;;;;;12.61;100.00;100878.91;5027658;28;20215;-43
2022/06/07 06:11:56;;;;;;;4.15;2.95;;;;;;;12.70;99.99;100878.50;5029060;28;20218;-40
2022/06/07 06:14:39;;;;;;;2.50;2.40;;;;;;;12.79;99.89;100871.84;5029300;28;20270;-42
2022/06/07 06:17:13;;;;;;;6.80;2.47;;;;;;;12.87;99.50;100877.72;5028302;28;20179;-41
2022/06/07 06:19:42;;;;;;;4.97;3.30;;;;;;;12.81;98.96;100871.75;5027496;28;20252;-43
2022/06/07 06:22:09;;;;;;;3.30;3.10;;;;;;;12.76;98.95;100870.13;5029269;28;20164;-46
2022/06/07 06:24:40;;;;;;;3.40;3.20;;;;;;;12.83;98.84;100873.41;5027521;28;20347;-45
2022/06/07 06:27:08;;;;;;;3.13;2.92;;;;;;;12.90;98.70;100863.25;5020980;28;20186;-47
2022/06/07 06:29:37;;;;;;;3.70;3.40;;;;;;;12.80;99.02;100870.88;5029098;28;20543;-48
2022/06/07 06:32:04;;;;;;;4.38;3.78;;;;;;;12.84;98.07;100864.41;5029416;28;20651;-44
2022/06/07 06:34:30;;;;;;;3.85;3.40;;;;;;;13.03;97.99;100856.34;5028948;28;20745;-47
2022/06/07 06:36:58;;;;;;;4.30;3.90;;;;;;;13.04;97.24;100863.47;5028874;28;20183;-48
2022/06/07 06:39:27;;;;;;;3.60;3.30;;;;;;;13.12;97.59;100869.34;5027970;28;20220;-47
2022/06/07 06:41:54;;;;;;;3.78;3.47;;;;;;;13.19;97.84;100859.16;5028630;28;20176;-46
2022/06/07 06:44:31;;;;;;;4.47;4.07;;;;;;;13.11;97.08;100864.03;5022530;28;20672;-45
2022/06/07 06:47:00;;;;;;;4.85;4.10;;;;;;;13.25;97.12;100852.59;5027312;28;20180;-46
2022/06/07 06:49:27;;;;;;;4.25;3.95;;;;;;;13.25;96.17;100853.50;5032892;28;20167;-46
2022/06/07 06:51:54;;;;;;;3.97;3.58;;;;;;;13.32;96.53;100862.16;5025984;28;20738;-46
2022/06/07 06:54:26;;;;;;;4.63;4.18;;;;;;;13.35;96.18;100862.00;5025841;28;20196;-45
2022/06/07 06:57:00;;;;;;;6.03;4.25;;;;;;;13.34;96.13;100860.28;5027086;28;20215;-43
2022/06/07 06:59:28;;;;;;;5.65;4.80;;;;;;;13.23;95.43;100851.81;5025651;28;20206;-46
2022/06/07 07:01:58;;;;;;;4.40;4.05;;;;;;;13.51;95.26;100852.25;5026409;28;20168;-47
2022/06/07 07:04:25;;;;;;;4.68;4.28;;;;;;;13.60;94.45;100848.22;5026351;28;20539;-47
2022/06/07 07:06:52;;;;;;;5.13;4.05;;;;;;;13.77;93.71;100844.63;5026055;28;20558;-44
2022/06/07 07:09:26;;;;;;;5.25;4.47;;;;;;;13.93;93.00;100837.53;5020679;28;20180;-46
2022/06/07 07:11:54;;;;;;;5.22;4.13;;;;;;;14.11;91.79;100845.59;5025223;28;20204;-46
2022/06/07 07:14:29;;;;;;;5.03;3.58;;;;;;;14.32;90.42;100839.06;5025594;28;20199;-47
2022/06/07 07:16:56;;;;;;;3.88;3.45;;;;;;;14.42;89.94;100842.97;5026563;28;20192;-45
2022/06/07 07:19:24;;;;;;;3.92;3.63;;;;;;;14.54;89.44;100838.78;5027760;28;20207;-45
2022/06/07 07:21:52;;;;;;;4.00;3.70;;;;;;;14.45;89.00;100838.38;5010233;28;20164;-46
2022/06/07 07:24:21;;;;;;;4.07;3.67;;;;;;;14.74;88.55;100835.00;5025984;28;20208;-46
2022/06/07 07:26:53;;;;;;;3.05;2.80;;;;;;;14.90;86.93;100828.75;5007846;28;20188;-46
2022/06/07 07:29:22;;;;;;;3.80;3.05;;;;;;;14.93;87.14;100825.88;5008239;28;20177;-46
2022/06/07 07:31:50;;;;;;;4.35;3.00;;;;;;;15.01;87.38;100829.88;5006898;28;20635;-43
2022/06/07 07:34:21;;;;;;;4.38;3.70;;;;;;;14.97;86.30;100812.13;5006822;28;20192;-46
2022/06/07 07:36:51;;;;;;;3.90;3.60;;;;;;;15.05;86.45;100817.09;5007148;28;20561;-43
2022/06/07 07:39:18;;;;;;;3.88;3.58;;;;;;;14.98;86.47;100823.81;5007072;28;20180;-46
2022/06/07 07:41:47;;;;;;;4.25;3.85;;;;;;;14.91;86.81;100825.97;5007265;28;20173;-47
2022/06/07 07:44:16;;;;;;;4.28;3.88;;;;;;;14.69;86.03;100825.41;5016012;28;20464;-46
2022/06/07 07:46:45;;;;;;;4.78;4.38;;;;;;;14.74;86.94;100826.91;5026652;28;20176;-49
2022/06/07 07:49:14;;;;;;;4.40;4.10;;;;;;;14.75;87.10;100825.94;5026697;28;20263;-46
2022/06/07 07:51:44;;;;;;;4.28;3.88;;;;;;;14.77;87.13;100828.56;5012008;28;20192;-44
2022/06/07 07:54:13;;;;;;;4.53;4.13;;;;;;;14.71;87.97;100820.81;5028341;28;20350;-46
2022/06/07 07:56:39;;;;;;;4.78;4.38;;;;;;;14.64;88.01;100817.59;5030262;28;20190;-45
2022/06/07 07:59:07;;;;;;;4.72;4.30;;;;;;;14.56;88.29;100818.03;5031670;28;20263;-44
2022/06/07 08:01:35;;;;;;;5.97;4.57;;;;;;;14.58;88.48;100826.91;5031817;28;20257;-46
2022/06/07 08:04:02;;;;;;;5.32;4.82;;;;;;;14.52;88.63;100819.09;5031985;28;20196;-44
2022/06/07 08:06:38;;;;;;;5.18;4.68;;;;;;;14.47;88.23;100814.91;5011919;28;20180;-46
2022/06/07 08:09:06;;;;;;;6.63;6.03;;;;;;;14.50;88.47;100810.22;5013776;28;20172;-44
2022/06/07 08:11:34;;;;;;;5.82;5.32;;;;;;;14.48;88.77;100803.19;5033298;28;20255;-43
2022/06/07 08:14:01;;;;;;;5.63;5.13;;;;;;;14.71;88.05;100799.22;5031726;28;20204;-41
2022/06/07 08:16:27;;;;;;;5.93;5.43;;;;;;;14.78;88.25;100787.13;5014974;28;20160;-46
2022/06/07 08:18:53;;;;;;;7.00;6.30;;;;;;;14.83;88.21;100788.63;5032763;28;20180;-49
2022/06/07 08:21:22;;;;;;;6.63;6.03;;;;;;;14.73;87.53;100792.78;5031649;28;20439;-43
2022/06/07 08:23:49;;;;;;;12.93;7.35;;;;;;;14.66;88.14;100804.03;5012093;28;20210;-45
2022/06/07 08:26:16;;;;;;;7.13;6.53;;;;;;;14.49;88.22;100792.28;5012794;28;20244;-42
2022/06/07 08:28:42;;;;;;;7.60;6.80;;;;;;;14.40;88.85;100798.19;5012745;28;20184;-44
2022/06/07 08:31:16;;;;;;;7.53;6.82;;;;;;;14.38;89.03;100792.88;5011967;28;20280;-45
2022/06/07 08:39:11;;;;;;;8.98;8.20;;;;;;;14.36;90.14;100796.63;5013003;28;20169;-44
2022/06/07 08:41:50;;;;;;;10.43;9.38;;;;;;;14.35;89.89;100792.22;5012956;28;20252;-44
2022/06/07 08:44:26;;;;;;;11.23;10.18;;;;;;;14.30;89.30;100803.25;5012208;28;20715;-46
2022/06/07 08:46:56;;;;;;;11.77;10.68;;;;;;;14.27;89.99;100814.16;5012678;28;20176;-47
2022/06/07 08:49:22;;;;;;;13.95;12.48;;;;;;;14.24;91.56;100800.88;5012405;28;20176;-43
2022/06/07 08:51:51;;;;;;;14.55;12.90;;;;;;;14.08;93.49;100806.22;5011805;28;20630;-43
2022/06/07 08:54:24;;;;;;;15.45;13.23;;;;;;;13.95;95.35;100792.53;5029630;28;20211;-43
2022/06/07 08:56:51;;;;;;;16.02;14.57;;;;;;;13.96;97.32;100799.63;5032002;28;20179;-42
2022/06/07 08:59:19;;;;;;;15.18;13.77;;;;;;;14.04;98.34;100792.97;5032125;28;20196;-50
2022/06/07 09:01:55;;;;;;;15.98;14.57;;;;;;;13.86;98.87;100789.44;5031957;28;20168;-44
2022/06/07 09:04:26;;;;;;;19.15;17.25;;;;;;;13.80;100.00;100786.13;5031869;28;20203;-47
2022/06/07 09:06:56;;;;;;;19.17;17.17;;;;;;;13.74;100.00;100786.44;5030417;28;20168;-44
2022/06/07 09:12:09;;;;;;;18.83;16.95;;;;;;;13.73;100.00;100784.72;5031446;28;20165;-46
2022/06/07 09:12:16;;;;;;;19.30;17.17;;;;;;;13.74;100.00;100772.09;5030066;28;20475;-44
2022/06/07 09:15:04;;;;;;;18.55;16.75;;;;;;;13.70;100.00;100783.97;5029244;28;20856;-44
2022/06/07 09:17:33;;;;;;;18.38;16.60;;;;;;;13.73;100.00;100790.09;5030519;28;20161;-49
2022/06/07 09:19:59;;;;;;;18.40;16.63;;;;;;;13.83;100.00;100792.28;5029459;28;20556;-44
2022/06/07 09:22:41;;;;;;;17.73;15.80;;;;;;;13.83;100.00;100786.91;5029421;28;20172;-46
2022/06/07 09:25:16;;;;;;;16.67;15.02;;;;;;;13.98;99.46;100792.34;5030108;28;20286;-47
2022/06/07 09:27:45;;;;;;;15.68;13.90;;;;;;;14.41;97.84;100778.41;5029972;28;20160;-45
2022/06/07 09:30:38;;;;;;;16.10;14.50;;;;;;;14.60;96.20;100773.72;5029877;28;20200;-45
2022/06/07 09:33:10;;;;;;;13.90;12.48;;;;;;;14.69;94.29;100764.25;5021414;28;20722;-48
2022/06/07 09:35:42;;;;;;;15.00;13.32;;;;;;;14.60;93.08;100772.88;5029834;28;20164;-44
2022/06/07 09:38:13;;;;;;;14.52;13.13;;;;;;;14.62;92.54;100760.16;5029710;28;20171;-45
2022/06/07 09:40:53;;;;;;;12.20;11.10;;;;;;;14.51;91.97;100767.97;5029383;28;20152;-45
2022/06/07 09:43:23;;;;;;;11.25;10.25;;;;;;;14.40;92.27;100771.25;5029549;28;20605;-48
2022/06/07 09:45:59;;;;;;;11.85;10.75;;;;;;;14.35;92.60;100767.94;5029623;28;20152;-45
2022/06/07 09:48:36;;;;;;;13.27;11.95;;;;;;;14.14;93.42;100767.28;5029381;28;20596;-50
2022/06/07 09:51:14;;;;;;;12.15;10.90;;;;;;;14.08;94.03;100773.00;5029720;28;20626;-45
2022/06/07 09:53:46;;;;;;;11.23;10.13;;;;;;;14.11;93.67;100789.00;5030827;28;20196;-45
2022/06/07 09:56:12;;;;;;;11.95;10.05;;;;;;;14.10;92.19;100784.56;5030993;28;20168;-43
2022/06/07 09:58:55;;;;;;;11.57;10.32;;;;;;;14.20;91.27;100780.44;5030979;28;20757;-46
2022/06/07 10:01:30;;;;;;;10.57;9.65;;;;;;;14.25;90.08;100783.72;5031128;28;20597;-44
2022/06/07 10:04:10;;;;;;;10.48;9.48;;;;;;;14.34;89.82;100776.97;5030540;28;20183;-46
2022/06/07 10:06:42;;;;;;;11.65;9.82;;;;;;;14.76;89.19;100776.47;5031267;28;20175;-44
2022/06/07 10:09:30;;;;;;;10.90;10.00;;;;;;;15.03;87.66;100765.91;5031128;28;20164;-47
2022/06/07 10:12:01;;;;;;;11.10;10.00;;;;;;;15.07;86.80;100755.81;5030814;28;20192;-49
2022/06/07 10:14:37;;;;;;;12.13;8.82;;;;;;;15.29;86.52;100759.97;5030695;28;20200;-45
2022/06/07 10:17:17;;;;;;;10.30;9.02;;;;;;;15.30;85.76;100759.84;5030582;28;20199;-43
2022/06/07 10:20:22;;;;;;;9.95;8.50;;;;;;;15.28;84.21;100760.91;5029988;28;20156;-44
2022/06/07 10:23:13;;;;;;;9.88;8.70;;;;;;;15.47;83.83;100769.66;5029763;28;20199;-46
2022/06/07 10:25:52;;;;;;;9.48;8.52;;;;;;;15.47;83.64;100760.69;5030865;28;20191;-43
2022/06/07 10:28:34;;;;;;;10.65;9.65;;;;;;;15.51;82.79;100760.41;5030430;28;20290;-47
2022/06/07 10:31:39;;;;;;;10.25;9.38;;;;;;;15.73;83.05;100760.00;5030562;28;20241;-48
2022/06/07 10:34:13;;;;;;;11.30;10.20;;;;;;;15.59;83.65;100755.41;5030025;28;20199;-46
2022/06/07 10:37:34;;;;;;;11.15;10.10;;;;;;;15.63;84.05;100754.28;5030487;28;20153;-49
2022/06/07 10:40:17;;;;;;;10.82;9.60;;;;;;;15.97;83.71;100762.19;4968951;28;20209;-47
2022/06/07 10:42:59;;;;;;;11.73;10.45;;;;;;;15.75;83.12;100752.69;5025211;28;20187;-45
2022/06/07 10:45:34;;;;;;;9.90;9.10;;;;;;;15.67;83.63;100754.94;5030353;28;20195;-45
2022/06/07 10:48:18;;;;;;;10.60;9.40;;;;;;;15.43;84.01;100747.34;5030659;28;20233;-42
2022/06/07 10:50:49;;;;;;;9.75;8.88;;;;;;;15.35;83.43;100756.88;5030547;28;20565;-44
2022/06/07 10:53:18;;;;;;;11.98;9.10;;;;;;;15.29;84.29;100760.81;5029869;28;20179;-48
2022/06/07 10:55:51;;;;;;;9.07;8.27;;;;;;;15.40;83.66;100757.47;5030297;28;20188;-45
2022/06/07 10:58:38;;;;;;;8.45;7.65;;;;;;;15.33;82.06;100764.22;5030135;28;20607;-44
2022/06/07 11:01:25;;;;;;;8.77;6.15;;;;;;;15.41;80.92;100756.50;5030225;28;20166;-44
2022/06/07 11:04:10;;;;;;;10.93;5.38;;;;;;;15.37;79.90;100774.75;5029945;28;20195;-44
2022/06/07 11:09:43;;;;;;;4.95;4.53;;;;;;;15.12;78.31;100764.50;5030605;28;20192;-44
2022/06/07 11:12:21;;;;;;;5.30;4.80;;;;;;;15.11;80.14;100772.66;5030165;28;20740;-42
2022/06/07 11:15:07;;;;;;;5.10;4.60;;;;;;;14.62;83.79;100803.31;5029673;28;20679;-46
2022/06/07 11:17:56;;;;;;;4.50;4.10;;;;;;;14.53;86.30;100807.34;5025323;28;20161;-46
2022/06/07 11:20:34;;;;;;;4.30;3.90;;;;;;;14.56;87.49;100804.53;5029920;28;20458;-48
2022/06/07 11:23:13;;;;;;;3.45;3.20;;;;;;;14.81;87.83;100804.03;5029310;28;20191;-47
2022/06/07 11:25:58;;;;;;;2.38;2.20;;;;;;;14.80;86.59;100796.91;5021441;28;20187;-45
2022/06/07 11:28:32;;;;;;;1.80;1.70;;;;;;;15.04;86.03;100797.34;5009927;28;20180;-46
2022/06/07 11:31:41;;;;;;;1.98;1.88;;;;;;;14.73;85.83;100813.50;5012796;28;20200;-45
2022/06/07 11:34:34;;;;;;;2.25;1.58;;;;;;;14.60;85.27;100814.16;5013009;28;20439;-46
2022/06/07 11:37:22;;;;;;;1.55;1.45;;;;;;;15.03;84.39;100809.06;5013639;28;20518;-45
2022/06/07 11:39:52;;;;;;;2.55;2.05;;;;;;;15.19;83.58;100802.78;5013472;28;20180;-45
2022/06/07 11:42:19;;;;;;;1.48;1.35;;;;;;;14.80;83.38;100796.91;5014277;28;20287;-46
2022/06/07 11:45:00;;;;;;;1.30;1.20;;;;;;;14.66;83.30;100802.19;5029541;28;20200;-46
2022/06/07 11:47:29;;;;;;;2.40;1.08;;;;;;;14.65;83.56;100808.56;5027507;28;20322;-45
2022/06/07 11:49:58;;;;;;;2.17;0.93;;;;;;;14.58;83.19;100807.13;5027683;28;20171;-47
2022/06/07 11:52:32;;;;;;;0.82;0.80;;;;;;;14.59;82.60;100798.09;5023574;28;20180;-45
2022/06/07 11:55:18;;;;;;;2.05;1.20;;;;;;;14.67;83.06;100803.94;5022234;28;20306;-45